sensor_id;sensor_type;location;lat;lon;timestamp;P1;durP1;ratioP1;P2;durP2;ratioP2
8592;SDS011;4334;49.982;8.398;2023-03-16T00:01:41;19.67;;;9.87;;
8592;SDS011;4334;49.982;8.398;2023-03-16T00:04:08;21.40;;;10.23;;
8592;SDS011;4334;49.982;8.398;2023-03-16T00:06:35;20.27;;;9.70;;
8592;SDS011;4334;49.982;8.398;2023-03-16T00:09:02;18.37;;;9.27;;
8592;SDS011;4334;49.982;8.398;2023-03-16T00:11:29;24.23;;;10.90;;
8592;SDS011;4334;49.982;8.398;2023-03-16T00:13:57;17.80;;;9.50;;
8592;SDS011;4334;49.982;8.398;2023-03-16T00:16:23;24.77;;;9.00;;
8592;SDS011;4334;49.982;8.398;2023-03-16T00:18:50;18.97;;;9.03;;
8592;SDS011;4334;49.982;8.398;2023-03-16T00:21:17;19.90;;;9.10;;
8592;SDS011;4334;49.982;8.398;2023-03-16T00:23:44;15.27;;;8.67;;
8592;SDS011;4334;49.982;8.398;2023-03-16T00:26:10;16.63;;;8.57;;
8592;SDS011;4334;49.982;8.398;2023-03-16T00:28:38;19.03;;;8.90;;
8592;SDS011;4334;49.982;8.398;2023-03-16T00:31:08;15.40;;;8.67;;
8592;SDS011;4334;49.982;8.398;2023-03-16T00:33:37;14.70;;;7.73;;
8592;SDS011;4334;49.982;8.398;2023-03-16T00:36:04;19.70;;;8.20;;
8592;SDS011;4334;49.982;8.398;2023-03-16T00:38:34;17.83;;;8.13;;
8592;SDS011;4334;49.982;8.398;2023-03-16T00:41:02;16.50;;;7.23;;
8592;SDS011;4334;49.982;8.398;2023-03-16T00:43:31;16.50;;;7.47;;
8592;SDS011;4334;49.982;8.398;2023-03-16T00:46:05;15.80;;;7.73;;
8592;SDS011;4334;49.982;8.398;2023-03-16T00:48:34;17.67;;;7.17;;
8592;SDS011;4334;49.982;8.398;2023-03-16T00:51:02;14.57;;;7.27;;
8592;SDS011;4334;49.982;8.398;2023-03-16T00:53:31;12.17;;;6.90;;
8592;SDS011;4334;49.982;8.398;2023-03-16T00:55:58;14.40;;;6.90;;
8592;SDS011;4334;49.982;8.398;2023-03-16T00:58:28;18.13;;;6.87;;
8592;SDS011;4334;49.982;8.398;2023-03-16T01:00:59;11.73;;;6.50;;
8592;SDS011;4334;49.982;8.398;2023-03-16T01:03:26;13.70;;;6.60;;
8592;SDS011;4334;49.982;8.398;2023-03-16T01:05:54;12.87;;;6.67;;
8592;SDS011;4334;49.982;8.398;2023-03-16T01:08:24;15.07;;;7.60;;
8592;SDS011;4334;49.982;8.398;2023-03-16T01:10:52;12.57;;;6.87;;
8592;SDS011;4334;49.982;8.398;2023-03-16T01:13:19;13.80;;;6.50;;
8592;SDS011;4334;49.982;8.398;2023-03-16T01:15:48;14.53;;;7.03;;
8592;SDS011;4334;49.982;8.398;2023-03-16T01:18:15;13.50;;;6.40;;
8592;SDS011;4334;49.982;8.398;2023-03-16T01:20:42;15.03;;;6.60;;
8592;SDS011;4334;49.982;8.398;2023-03-16T01:23:16;12.73;;;6.83;;
8592;SDS011;4334;49.982;8.398;2023-03-16T01:25:43;12.83;;;6.50;;
8592;SDS011;4334;49.982;8.398;2023-03-16T01:28:16;13.80;;;6.63;;
8592;SDS011;4334;49.982;8.398;2023-03-16T01:30:44;11.67;;;7.30;;
8592;SDS011;4334;49.982;8.398;2023-03-16T01:33:11;15.67;;;7.83;;
8592;SDS011;4334;49.982;8.398;2023-03-16T01:35:37;16.93;;;7.43;;
8592;SDS011;4334;49.982;8.398;2023-03-16T01:38:04;15.37;;;7.70;;
8592;SDS011;4334;49.982;8.398;2023-03-16T01:40:32;15.93;;;8.13;;
8592;SDS011;4334;49.982;8.398;2023-03-16T01:43:01;18.43;;;7.57;;
8592;SDS011;4334;49.982;8.398;2023-03-16T01:48:39;13.93;;;7.17;;
8592;SDS011;4334;49.982;8.398;2023-03-16T01:51:09;12.60;;;7.40;;
8592;SDS011;4334;49.982;8.398;2023-03-16T01:53:40;14.93;;;7.17;;
8592;SDS011;4334;49.982;8.398;2023-03-16T01:56:12;11.07;;;6.97;;
8592;SDS011;4334;49.982;8.398;2023-03-16T01:58:43;13.60;;;7.70;;
8592;SDS011;4334;49.982;8.398;2023-03-16T02:01:11;13.30;;;7.93;;
8592;SDS011;4334;49.982;8.398;2023-03-16T02:03:38;12.43;;;7.27;;
8592;SDS011;4334;49.982;8.398;2023-03-16T02:06:08;13.87;;;7.33;;
8592;SDS011;4334;49.982;8.398;2023-03-16T02:08:38;14.93;;;7.70;;
8592;SDS011;4334;49.982;8.398;2023-03-16T02:11:07;12.90;;;7.30;;
8592;SDS011;4334;49.982;8.398;2023-03-16T02:13:36;18.03;;;7.80;;
8592;SDS011;4334;49.982;8.398;2023-03-16T02:16:03;13.63;;;7.40;;
8592;SDS011;4334;49.982;8.398;2023-03-16T02:18:32;14.23;;;7.80;;
8592;SDS011;4334;49.982;8.398;2023-03-16T02:21:01;13.37;;;7.50;;
8592;SDS011;4334;49.982;8.398;2023-03-16T02:23:37;12.13;;;7.00;;
8592;SDS011;4334;49.982;8.398;2023-03-16T02:26:06;11.93;;;7.03;;
8592;SDS011;4334;49.982;8.398;2023-03-16T02:28:44;15.40;;;7.77;;
8592;SDS011;4334;49.982;8.398;2023-03-16T02:31:19;16.03;;;7.83;;
8592;SDS011;4334;49.982;8.398;2023-03-16T02:33:47;12.10;;;7.47;;
8592;SDS011;4334;49.982;8.398;2023-03-16T02:36:16;18.63;;;7.90;;
8592;SDS011;4334;49.982;8.398;2023-03-16T02:38:45;17.60;;;8.67;;
8592;SDS011;4334;49.982;8.398;2023-03-16T02:41:13;15.87;;;7.83;;
8592;SDS011;4334;49.982;8.398;2023-03-16T02:43:42;13.33;;;8.37;;
8592;SDS011;4334;49.982;8.398;2023-03-16T02:46:16;13.90;;;8.23;;
8592;SDS011;4334;49.982;8.398;2023-03-16T02:48:48;14.27;;;7.90;;
8592;SDS011;4334;49.982;8.398;2023-03-16T02:51:21;14.00;;;7.77;;
8592;SDS011;4334;49.982;8.398;2023-03-16T02:53:48;17.97;;;8.53;;
8592;SDS011;4334;49.982;8.398;2023-03-16T02:56:15;19.00;;;8.30;;
8592;SDS011;4334;49.982;8.398;2023-03-16T02:58:41;13.87;;;8.40;;
8592;SDS011;4334;49.982;8.398;2023-03-16T03:01:08;15.63;;;8.37;;
8592;SDS011;4334;49.982;8.398;2023-03-16T03:03:35;15.97;;;7.77;;
8592;SDS011;4334;49.982;8.398;2023-03-16T03:06:03;15.60;;;7.60;;
8592;SDS011;4334;49.982;8.398;2023-03-16T03:08:30;14.13;;;7.93;;
8592;SDS011;4334;49.982;8.398;2023-03-16T03:10:57;14.57;;;8.00;;
8592;SDS011;4334;49.982;8.398;2023-03-16T03:13:24;17.23;;;7.83;;
8592;SDS011;4334;49.982;8.398;2023-03-16T03:15:51;16.43;;;7.60;;
8592;SDS011;4334;49.982;8.398;2023-03-16T03:18:18;16.83;;;8.30;;
8592;SDS011;4334;49.982;8.398;2023-03-16T03:20:44;14.10;;;8.20;;
8592;SDS011;4334;49.982;8.398;2023-03-16T03:23:13;14.70;;;9.17;;
8592;SDS011;4334;49.982;8.398;2023-03-16T03:25:41;16.07;;;8.20;;
8592;SDS011;4334;49.982;8.398;2023-03-16T03:28:08;18.60;;;8.33;;
8592;SDS011;4334;49.982;8.398;2023-03-16T03:30:35;13.77;;;8.47;;
8592;SDS011;4334;49.982;8.398;2023-03-16T03:33:02;14.00;;;8.37;;
8592;SDS011;4334;49.982;8.398;2023-03-16T03:35:29;21.83;;;9.77;;
8592;SDS011;4334;49.982;8.398;2023-03-16T03:37:56;15.27;;;9.17;;
8592;SDS011;4334;49.982;8.398;2023-03-16T03:40:24;19.67;;;9.57;;
8592;SDS011;4334;49.982;8.398;2023-03-16T03:42:51;17.83;;;9.37;;
8592;SDS011;4334;49.982;8.398;2023-03-16T03:45:18;21.63;;;9.43;;
8592;SDS011;4334;49.982;8.398;2023-03-16T03:47:45;17.17;;;9.10;;
8592;SDS011;4334;49.982;8.398;2023-03-16T03:50:12;18.03;;;8.67;;
8592;SDS011;4334;49.982;8.398;2023-03-16T03:52:39;15.90;;;9.00;;
8592;SDS011;4334;49.982;8.398;2023-03-16T03:55:07;18.63;;;9.70;;
8592;SDS011;4334;49.982;8.398;2023-03-16T03:57:36;17.67;;;9.50;;
8592;SDS011;4334;49.982;8.398;2023-03-16T04:00:03;17.43;;;9.17;;
8592;SDS011;4334;49.982;8.398;2023-03-16T04:02:33;16.63;;;9.43;;
8592;SDS011;4334;49.982;8.398;2023-03-16T04:05:00;19.10;;;10.23;;
8592;SDS011;4334;49.982;8.398;2023-03-16T04:07:27;16.77;;;9.83;;
8592;SDS011;4334;49.982;8.398;2023-03-16T04:09:54;20.70;;;9.87;;
8592;SDS011;4334;49.982;8.398;2023-03-16T04:12:20;17.07;;;9.53;;
8592;SDS011;4334;49.982;8.398;2023-03-16T04:14:48;20.47;;;9.77;;
8592;SDS011;4334;49.982;8.398;2023-03-16T04:17:15;16.63;;;10.00;;
8592;SDS011;4334;49.982;8.398;2023-03-16T04:19:42;17.33;;;9.87;;
8592;SDS011;4334;49.982;8.398;2023-03-16T04:22:09;19.17;;;10.17;;
8592;SDS011;4334;49.982;8.398;2023-03-16T04:24:37;18.57;;;9.90;;
8592;SDS011;4334;49.982;8.398;2023-03-16T04:27:04;17.17;;;9.90;;
8592;SDS011;4334;49.982;8.398;2023-03-16T04:29:31;17.13;;;9.67;;
8592;SDS011;4334;49.982;8.398;2023-03-16T04:31:59;21.03;;;9.87;;
8592;SDS011;4334;49.982;8.398;2023-03-16T04:34:26;17.43;;;10.33;;
8592;SDS011;4334;49.982;8.398;2023-03-16T04:36:52;18.60;;;9.47;;
8592;SDS011;4334;49.982;8.398;2023-03-16T04:39:19;17.37;;;9.80;;
8592;SDS011;4334;49.982;8.398;2023-03-16T04:41:46;17.00;;;9.90;;
8592;SDS011;4334;49.982;8.398;2023-03-16T04:44:13;17.30;;;10.07;;
8592;SDS011;4334;49.982;8.398;2023-03-16T04:46:40;22.80;;;10.83;;
8592;SDS011;4334;49.982;8.398;2023-03-16T04:49:08;19.23;;;9.73;;
8592;SDS011;4334;49.982;8.398;2023-03-16T04:51:35;18.47;;;10.37;;
8592;SDS011;4334;49.982;8.398;2023-03-16T04:54:04;19.20;;;10.43;;
8592;SDS011;4334;49.982;8.398;2023-03-16T04:56:32;19.93;;;10.17;;
8592;SDS011;4334;49.982;8.398;2023-03-16T04:58:58;17.70;;;10.27;;
8592;SDS011;4334;49.982;8.398;2023-03-16T05:01:25;16.63;;;9.33;;
8592;SDS011;4334;49.982;8.398;2023-03-16T05:03:53;17.20;;;9.93;;
8592;SDS011;4334;49.982;8.398;2023-03-16T05:06:21;19.20;;;10.00;;
8592;SDS011;4334;49.982;8.398;2023-03-16T05:08:48;17.93;;;10.77;;
8592;SDS011;4334;49.982;8.398;2023-03-16T05:11:15;19.37;;;10.40;;
8592;SDS011;4334;49.982;8.398;2023-03-16T05:13:42;20.73;;;10.60;;
8592;SDS011;4334;49.982;8.398;2023-03-16T05:16:08;17.53;;;10.67;;
8592;SDS011;4334;49.982;8.398;2023-03-16T05:18:35;16.83;;;10.47;;
8592;SDS011;4334;49.982;8.398;2023-03-16T05:21:02;21.33;;;10.33;;
8592;SDS011;4334;49.982;8.398;2023-03-16T05:23:30;17.37;;;11.10;;
8592;SDS011;4334;49.982;8.398;2023-03-16T05:25:57;20.37;;;10.90;;
8592;SDS011;4334;49.982;8.398;2023-03-16T05:28:25;19.03;;;10.57;;
8592;SDS011;4334;49.982;8.398;2023-03-16T05:30:52;18.27;;;11.03;;
8592;SDS011;4334;49.982;8.398;2023-03-16T05:33:19;18.23;;;10.63;;
8592;SDS011;4334;49.982;8.398;2023-03-16T05:35:46;17.60;;;10.43;;
8592;SDS011;4334;49.982;8.398;2023-03-16T05:38:13;19.50;;;10.37;;
8592;SDS011;4334;49.982;8.398;2023-03-16T05:40:41;18.90;;;10.70;;
8592;SDS011;4334;49.982;8.398;2023-03-16T05:43:08;18.80;;;10.33;;
8592;SDS011;4334;49.982;8.398;2023-03-16T05:45:35;19.43;;;10.43;;
8592;SDS011;4334;49.982;8.398;2023-03-16T05:48:01;20.67;;;10.73;;
8592;SDS011;4334;49.982;8.398;2023-03-16T05:50:29;18.90;;;10.83;;
8592;SDS011;4334;49.982;8.398;2023-03-16T05:52:56;18.47;;;10.37;;
8592;SDS011;4334;49.982;8.398;2023-03-16T05:55:23;18.47;;;10.53;;
8592;SDS011;4334;49.982;8.398;2023-03-16T05:57:51;20.73;;;10.50;;
8592;SDS011;4334;49.982;8.398;2023-03-16T06:00:18;17.20;;;9.60;;
8592;SDS011;4334;49.982;8.398;2023-03-16T06:02:47;15.83;;;9.90;;
8592;SDS011;4334;49.982;8.398;2023-03-16T06:05:16;20.60;;;10.73;;
8592;SDS011;4334;49.982;8.398;2023-03-16T06:07:44;19.47;;;10.70;;
8592;SDS011;4334;49.982;8.398;2023-03-16T06:10:11;18.33;;;10.37;;
8592;SDS011;4334;49.982;8.398;2023-03-16T06:12:38;18.17;;;9.70;;
8592;SDS011;4334;49.982;8.398;2023-03-16T06:15:08;13.63;;;8.93;;
8592;SDS011;4334;49.982;8.398;2023-03-16T06:17:36;15.70;;;10.10;;
8592;SDS011;4334;49.982;8.398;2023-03-16T06:20:05;17.10;;;10.10;;
8592;SDS011;4334;49.982;8.398;2023-03-16T06:22:39;16.87;;;9.50;;
8592;SDS011;4334;49.982;8.398;2023-03-16T06:25:07;14.80;;;8.73;;
8592;SDS011;4334;49.982;8.398;2023-03-16T06:27:36;17.70;;;9.27;;
8592;SDS011;4334;49.982;8.398;2023-03-16T06:30:04;14.40;;;8.33;;
8592;SDS011;4334;49.982;8.398;2023-03-16T06:32:35;12.80;;;8.60;;
8592;SDS011;4334;49.982;8.398;2023-03-16T06:35:02;13.33;;;8.70;;
8592;SDS011;4334;49.982;8.398;2023-03-16T06:40:51;14.77;;;8.40;;
8592;SDS011;4334;49.982;8.398;2023-03-16T06:43:18;13.10;;;8.10;;
8592;SDS011;4334;49.982;8.398;2023-03-16T06:45:46;13.87;;;8.30;;
8592;SDS011;4334;49.982;8.398;2023-03-16T06:48:13;12.40;;;7.90;;
8592;SDS011;4334;49.982;8.398;2023-03-16T06:50:40;14.97;;;7.60;;
8592;SDS011;4334;49.982;8.398;2023-03-16T06:53:07;11.13;;;7.47;;
8592;SDS011;4334;49.982;8.398;2023-03-16T06:55:35;13.07;;;8.20;;
8592;SDS011;4334;49.982;8.398;2023-03-16T06:58:02;11.70;;;7.53;;
8592;SDS011;4334;49.982;8.398;2023-03-16T07:00:28;10.00;;;6.50;;
8592;SDS011;4334;49.982;8.398;2023-03-16T07:02:59;15.50;;;7.73;;
8592;SDS011;4334;49.982;8.398;2023-03-16T07:05:26;11.83;;;7.73;;
8592;SDS011;4334;49.982;8.398;2023-03-16T07:07:53;12.63;;;8.23;;
8592;SDS011;4334;49.982;8.398;2023-03-16T07:10:20;12.93;;;7.93;;
8592;SDS011;4334;49.982;8.398;2023-03-16T07:12:47;10.53;;;7.47;;
8592;SDS011;4334;49.982;8.398;2023-03-16T07:15:14;11.90;;;7.70;;
8592;SDS011;4334;49.982;8.398;2023-03-16T07:17:41;11.40;;;7.23;;
8592;SDS011;4334;49.982;8.398;2023-03-16T07:20:10;9.13;;;6.73;;
8592;SDS011;4334;49.982;8.398;2023-03-16T07:22:37;11.50;;;7.57;;
8592;SDS011;4334;49.982;8.398;2023-03-16T07:25:06;12.53;;;7.70;;
8592;SDS011;4334;49.982;8.398;2023-03-16T07:27:33;10.90;;;7.03;;
8592;SDS011;4334;49.982;8.398;2023-03-16T07:30:00;14.93;;;7.60;;
8592;SDS011;4334;49.982;8.398;2023-03-16T07:32:28;12.87;;;7.40;;
8592;SDS011;4334;49.982;8.398;2023-03-16T07:34:56;10.97;;;7.50;;
8592;SDS011;4334;49.982;8.398;2023-03-16T07:37:25;11.90;;;7.53;;
8592;SDS011;4334;49.982;8.398;2023-03-16T07:39:52;11.27;;;6.73;;
8592;SDS011;4334;49.982;8.398;2023-03-16T07:42:19;11.20;;;7.30;;
8592;SDS011;4334;49.982;8.398;2023-03-16T07:44:46;10.60;;;7.10;;
8592;SDS011;4334;49.982;8.398;2023-03-16T07:47:13;11.77;;;7.37;;
8592;SDS011;4334;49.982;8.398;2023-03-16T07:49:40;11.27;;;7.17;;
8592;SDS011;4334;49.982;8.398;2023-03-16T07:52:08;10.27;;;7.40;;
8592;SDS011;4334;49.982;8.398;2023-03-16T07:54:39;11.43;;;6.90;;
8592;SDS011;4334;49.982;8.398;2023-03-16T07:57:06;12.17;;;7.13;;
8592;SDS011;4334;49.982;8.398;2023-03-16T07:59:33;12.53;;;7.33;;
8592;SDS011;4334;49.982;8.398;2023-03-16T08:02:00;8.80;;;6.17;;
8592;SDS011;4334;49.982;8.398;2023-03-16T08:04:27;9.43;;;6.70;;
8592;SDS011;4334;49.982;8.398;2023-03-16T08:06:55;9.77;;;7.30;;
8592;SDS011;4334;49.982;8.398;2023-03-16T08:09:24;11.43;;;7.63;;
8592;SDS011;4334;49.982;8.398;2023-03-16T08:11:52;9.77;;;6.87;;
8592;SDS011;4334;49.982;8.398;2023-03-16T08:14:19;9.67;;;7.20;;
8592;SDS011;4334;49.982;8.398;2023-03-16T08:16:47;13.03;;;6.97;;
8592;SDS011;4334;49.982;8.398;2023-03-16T08:19:14;8.40;;;5.83;;
8592;SDS011;4334;49.982;8.398;2023-03-16T08:21:44;12.13;;;6.87;;
8592;SDS011;4334;49.982;8.398;2023-03-16T08:24:11;9.47;;;6.50;;
8592;SDS011;4334;49.982;8.398;2023-03-16T08:26:38;7.93;;;6.20;;
8592;SDS011;4334;49.982;8.398;2023-03-16T08:29:06;8.07;;;6.20;;
8592;SDS011;4334;49.982;8.398;2023-03-16T08:31:33;8.87;;;5.87;;
8592;SDS011;4334;49.982;8.398;2023-03-16T08:34:00;8.13;;;6.40;;
8592;SDS011;4334;49.982;8.398;2023-03-16T08:36:27;8.27;;;6.30;;
8592;SDS011;4334;49.982;8.398;2023-03-16T08:38:54;7.73;;;6.20;;
8592;SDS011;4334;49.982;8.398;2023-03-16T08:41:21;14.30;;;6.57;;
8592;SDS011;4334;49.982;8.398;2023-03-16T08:43:49;12.27;;;5.90;;
8592;SDS011;4334;49.982;8.398;2023-03-16T08:46:17;7.60;;;6.03;;
8592;SDS011;4334;49.982;8.398;2023-03-16T08:48:45;8.93;;;6.47;;
8592;SDS011;4334;49.982;8.398;2023-03-16T08:51:12;8.43;;;5.70;;
8592;SDS011;4334;49.982;8.398;2023-03-16T08:53:39;7.80;;;6.03;;
8592;SDS011;4334;49.982;8.398;2023-03-16T08:56:06;8.00;;;6.10;;
8592;SDS011;4334;49.982;8.398;2023-03-16T08:58:36;9.87;;;6.20;;
8592;SDS011;4334;49.982;8.398;2023-03-16T09:01:06;7.90;;;5.90;;
8592;SDS011;4334;49.982;8.398;2023-03-16T09:03:34;8.00;;;6.30;;
8592;SDS011;4334;49.982;8.398;2023-03-16T09:06:02;7.10;;;5.90;;
8592;SDS011;4334;49.982;8.398;2023-03-16T09:08:31;8.43;;;6.00;;
8592;SDS011;4334;49.982;8.398;2023-03-16T09:10:59;7.70;;;6.23;;
8592;SDS011;4334;49.982;8.398;2023-03-16T09:13:26;7.23;;;5.90;;
8592;SDS011;4334;49.982;8.398;2023-03-16T09:15:54;6.63;;;5.77;;
8592;SDS011;4334;49.982;8.398;2023-03-16T09:18:20;6.90;;;5.20;;
8592;SDS011;4334;49.982;8.398;2023-03-16T09:20:51;6.77;;;5.33;;
8592;SDS011;4334;49.982;8.398;2023-03-16T09:23:22;6.53;;;5.77;;
8592;SDS011;4334;49.982;8.398;2023-03-16T09:25:48;8.00;;;5.60;;
8592;SDS011;4334;49.982;8.398;2023-03-16T09:28:16;6.93;;;5.10;;
8592;SDS011;4334;49.982;8.398;2023-03-16T09:30:42;6.87;;;5.73;;
8592;SDS011;4334;49.982;8.398;2023-03-16T09:33:09;7.23;;;5.27;;
8592;SDS011;4334;49.982;8.398;2023-03-16T09:35:36;7.97;;;4.97;;
8592;SDS011;4334;49.982;8.398;2023-03-16T09:38:04;5.87;;;4.83;;
8592;SDS011;4334;49.982;8.398;2023-03-16T09:40:31;5.30;;;4.67;;
8592;SDS011;4334;49.982;8.398;2023-03-16T09:45:58;5.80;;;4.90;;
8592;SDS011;4334;49.982;8.398;2023-03-16T09:48:31;7.20;;;4.60;;
8592;SDS011;4334;49.982;8.398;2023-03-16T09:50:59;7.27;;;4.90;;
8592;SDS011;4334;49.982;8.398;2023-03-16T09:53:31;6.13;;;4.47;;
8592;SDS011;4334;49.982;8.398;2023-03-16T09:56:01;6.30;;;4.77;;
8592;SDS011;4334;49.982;8.398;2023-03-16T09:58:30;6.47;;;4.80;;
8592;SDS011;4334;49.982;8.398;2023-03-16T10:00:59;5.67;;;4.63;;
8592;SDS011;4334;49.982;8.398;2023-03-16T10:03:46;5.67;;;4.87;;
8592;SDS011;4334;49.982;8.398;2023-03-16T10:06:32;5.20;;;4.70;;
8592;SDS011;4334;49.982;8.398;2023-03-16T10:09:06;6.27;;;4.63;;
8592;SDS011;4334;49.982;8.398;2023-03-16T10:11:47;5.93;;;4.67;;
8592;SDS011;4334;49.982;8.398;2023-03-16T10:14:20;4.80;;;4.10;;
8592;SDS011;4334;49.982;8.398;2023-03-16T12:25:13;4.33;;;2.97;;
8592;SDS011;4334;49.982;8.398;2023-03-16T12:27:46;8.47;;;3.30;;
8592;SDS011;4334;49.982;8.398;2023-03-16T12:49:46;3.58;;;2.88;;
8592;SDS011;4334;49.982;8.398;2023-03-16T12:52:21;5.05;;;3.17;;
8592;SDS011;4334;49.982;8.398;2023-03-16T12:54:51;4.63;;;2.90;;
8592;SDS011;4334;49.982;8.398;2023-03-16T12:57:23;3.70;;;2.77;;
8592;SDS011;4334;49.982;8.398;2023-03-16T12:59:54;3.80;;;2.90;;
8592;SDS011;4334;49.982;8.398;2023-03-16T13:02:25;3.20;;;2.70;;
8592;SDS011;4334;49.982;8.398;2023-03-16T13:04:58;3.42;;;2.63;;
8592;SDS011;4334;49.982;8.398;2023-03-16T13:07:28;3.10;;;2.80;;
8592;SDS011;4334;49.982;8.398;2023-03-16T13:09:57;4.43;;;3.22;;
8592;SDS011;4334;49.982;8.398;2023-03-16T13:12:28;3.53;;;3.20;;
8592;SDS011;4334;49.982;8.398;2023-03-16T13:14:57;4.47;;;2.88;;
8592;SDS011;4334;49.982;8.398;2023-03-16T13:17:28;3.58;;;3.00;;
8592;SDS011;4334;49.982;8.398;2023-03-16T13:20:20;3.42;;;2.70;;
8592;SDS011;4334;49.982;8.398;2023-03-16T13:22:51;4.43;;;3.20;;
8592;SDS011;4334;49.982;8.398;2023-03-16T13:25:39;2.15;;;1.90;;
8592;SDS011;4334;49.982;8.398;2023-03-16T13:28:10;4.60;;;2.17;;
8592;SDS011;4334;49.982;8.398;2023-03-16T13:30:43;2.58;;;2.10;;
8592;SDS011;4334;49.982;8.398;2023-03-16T13:33:20;2.88;;;2.13;;
8592;SDS011;4334;49.982;8.398;2023-03-16T13:35:55;2.47;;;2.15;;
8592;SDS011;4334;49.982;8.398;2023-03-16T13:38:25;4.45;;;2.20;;
8592;SDS011;4334;49.982;8.398;2023-03-16T13:41:08;2.30;;;1.90;;
8592;SDS011;4334;49.982;8.398;2023-03-16T13:43:40;2.38;;;1.85;;
8592;SDS011;4334;49.982;8.398;2023-03-16T13:46:12;3.30;;;1.63;;
8592;SDS011;4334;49.982;8.398;2023-03-16T13:48:40;4.23;;;2.10;;
8592;SDS011;4334;49.982;8.398;2023-03-16T13:51:11;2.97;;;2.13;;
8592;SDS011;4334;49.982;8.398;2023-03-16T13:53:43;2.53;;;1.97;;
8592;SDS011;4334;49.982;8.398;2023-03-16T13:56:12;2.80;;;1.90;;
8592;SDS011;4334;49.982;8.398;2023-03-16T13:58:42;3.17;;;2.17;;
8592;SDS011;4334;49.982;8.398;2023-03-16T14:01:13;5.37;;;1.97;;
8592;SDS011;4334;49.982;8.398;2023-03-16T14:03:49;4.00;;;2.20;;
8592;SDS011;4334;49.982;8.398;2023-03-16T14:06:22;2.30;;;1.80;;
8592;SDS011;4334;49.982;8.398;2023-03-16T14:08:51;3.67;;;1.80;;
8592;SDS011;4334;49.982;8.398;2023-03-16T14:11:19;3.23;;;1.80;;
8592;SDS011;4334;49.982;8.398;2023-03-16T14:13:49;2.80;;;2.00;;
8592;SDS011;4334;49.982;8.398;2023-03-16T14:16:19;3.77;;;2.10;;
8592;SDS011;4334;49.982;8.398;2023-03-16T14:18:51;2.73;;;2.23;;
8592;SDS011;4334;49.982;8.398;2023-03-16T14:21:25;2.03;;;1.90;;
8592;SDS011;4334;49.982;8.398;2023-03-16T14:23:56;3.40;;;2.07;;
8592;SDS011;4334;49.982;8.398;2023-03-16T14:26:24;3.57;;;1.97;;
8592;SDS011;4334;49.982;8.398;2023-03-16T14:28:53;2.40;;;1.53;;
8592;SDS011;4334;49.982;8.398;2023-03-16T14:31:30;1.87;;;1.67;;
8592;SDS011;4334;49.982;8.398;2023-03-16T14:33:59;2.23;;;1.80;;
8592;SDS011;4334;49.982;8.398;2023-03-16T14:36:34;3.10;;;1.90;;
8592;SDS011;4334;49.982;8.398;2023-03-16T14:39:09;4.33;;;2.00;;
8592;SDS011;4334;49.982;8.398;2023-03-16T14:41:38;3.73;;;1.80;;
8592;SDS011;4334;49.982;8.398;2023-03-16T14:44:11;3.50;;;1.80;;
8592;SDS011;4334;49.982;8.398;2023-03-16T14:46:45;2.20;;;1.60;;
8592;SDS011;4334;49.982;8.398;2023-03-16T14:49:20;2.80;;;1.77;;
8592;SDS011;4334;49.982;8.398;2023-03-16T14:51:51;2.43;;;1.73;;
8592;SDS011;4334;49.982;8.398;2023-03-16T14:54:22;2.30;;;1.90;;
8592;SDS011;4334;49.982;8.398;2023-03-16T14:56:51;3.73;;;1.60;;
8592;SDS011;4334;49.982;8.398;2023-03-16T14:59:19;1.80;;;1.60;;
8592;SDS011;4334;49.982;8.398;2023-03-16T15:01:47;2.00;;;1.70;;
8592;SDS011;4334;49.982;8.398;2023-03-16T15:04:16;2.33;;;1.80;;
8592;SDS011;4334;49.982;8.398;2023-03-16T15:06:45;3.13;;;1.70;;
8592;SDS011;4334;49.982;8.398;2023-03-16T15:09:18;4.50;;;1.70;;
8592;SDS011;4334;49.982;8.398;2023-03-16T15:12:01;2.30;;;2.00;;
8592;SDS011;4334;49.982;8.398;2023-03-16T15:14:28;2.33;;;1.97;;
8592;SDS011;4334;49.982;8.398;2023-03-16T15:17:16;4.13;;;2.00;;
8592;SDS011;4334;49.982;8.398;2023-03-16T15:19:47;2.27;;;1.90;;
8592;SDS011;4334;49.982;8.398;2023-03-16T15:22:14;2.90;;;1.83;;
8592;SDS011;4334;49.982;8.398;2023-03-16T15:24:51;4.10;;;2.03;;
8592;SDS011;4334;49.982;8.398;2023-03-16T15:27:19;5.10;;;1.90;;
8592;SDS011;4334;49.982;8.398;2023-03-16T15:29:49;2.40;;;1.80;;
8592;SDS011;4334;49.982;8.398;2023-03-16T15:32:16;3.83;;;2.07;;
8592;SDS011;4334;49.982;8.398;2023-03-16T15:34:43;2.00;;;1.80;;
8592;SDS011;4334;49.982;8.398;2023-03-16T15:37:11;2.97;;;2.10;;
8592;SDS011;4334;49.982;8.398;2023-03-16T15:39:40;2.47;;;1.80;;
8592;SDS011;4334;49.982;8.398;2023-03-16T15:42:12;2.13;;;1.83;;
8592;SDS011;4334;49.982;8.398;2023-03-16T15:44:41;2.00;;;1.73;;
8592;SDS011;4334;49.982;8.398;2023-03-16T15:47:09;2.83;;;1.97;;
8592;SDS011;4334;49.982;8.398;2023-03-16T15:49:36;2.00;;;1.80;;
8592;SDS011;4334;49.982;8.398;2023-03-16T15:52:12;2.83;;;1.90;;
8592;SDS011;4334;49.982;8.398;2023-03-16T15:54:47;3.20;;;2.40;;
8592;SDS011;4334;49.982;8.398;2023-03-16T15:57:17;2.30;;;2.10;;
8592;SDS011;4334;49.982;8.398;2023-03-16T15:59:47;2.30;;;1.90;;
8592;SDS011;4334;49.982;8.398;2023-03-16T16:02:22;2.93;;;1.90;;
8592;SDS011;4334;49.982;8.398;2023-03-16T16:04:55;2.93;;;1.90;;
8592;SDS011;4334;49.982;8.398;2023-03-16T16:07:23;4.23;;;2.13;;
8592;SDS011;4334;49.982;8.398;2023-03-16T16:09:51;2.93;;;1.80;;
8592;SDS011;4334;49.982;8.398;2023-03-16T16:12:19;3.40;;;1.90;;
8592;SDS011;4334;49.982;8.398;2023-03-16T16:14:51;2.80;;;2.00;;
8592;SDS011;4334;49.982;8.398;2023-03-16T16:17:20;3.37;;;2.10;;
8592;SDS011;4334;49.982;8.398;2023-03-16T16:19:50;3.90;;;2.20;;
8592;SDS011;4334;49.982;8.398;2023-03-16T16:22:18;2.30;;;2.00;;
8592;SDS011;4334;49.982;8.398;2023-03-16T16:24:49;3.37;;;2.30;;
8592;SDS011;4334;49.982;8.398;2023-03-16T16:27:16;3.00;;;2.30;;
8592;SDS011;4334;49.982;8.398;2023-03-16T16:29:44;3.07;;;1.93;;
8592;SDS011;4334;49.982;8.398;2023-03-16T16:32:21;2.83;;;1.93;;
8592;SDS011;4334;49.982;8.398;2023-03-16T16:34:49;2.70;;;1.90;;
8592;SDS011;4334;49.982;8.398;2023-03-16T16:37:18;3.23;;;2.00;;
8592;SDS011;4334;49.982;8.398;2023-03-16T16:39:45;3.90;;;2.00;;
8592;SDS011;4334;49.982;8.398;2023-03-16T16:42:20;2.53;;;1.90;;
8592;SDS011;4334;49.982;8.398;2023-03-16T16:44:49;2.40;;;1.70;;
8592;SDS011;4334;49.982;8.398;2023-03-16T16:47:19;2.90;;;1.80;;
8592;SDS011;4334;49.982;8.398;2023-03-16T16:49:46;3.13;;;1.97;;
8592;SDS011;4334;49.982;8.398;2023-03-16T16:52:16;2.30;;;1.80;;
8592;SDS011;4334;49.982;8.398;2023-03-16T16:54:45;3.00;;;1.93;;
8592;SDS011;4334;49.982;8.398;2023-03-16T16:57:15;2.87;;;2.00;;
8592;SDS011;4334;49.982;8.398;2023-03-16T16:59:45;2.83;;;1.90;;
8592;SDS011;4334;49.982;8.398;2023-03-16T17:05:14;2.23;;;1.70;;
8592;SDS011;4334;49.982;8.398;2023-03-16T17:07:44;2.73;;;1.70;;
8592;SDS011;4334;49.982;8.398;2023-03-16T17:10:15;3.70;;;1.87;;
8592;SDS011;4334;49.982;8.398;2023-03-16T17:12:45;2.77;;;1.70;;
8592;SDS011;4334;49.982;8.398;2023-03-16T17:15:17;3.60;;;1.70;;
8592;SDS011;4334;49.982;8.398;2023-03-16T17:17:54;3.07;;;2.03;;
8592;SDS011;4334;49.982;8.398;2023-03-16T17:20:31;1.97;;;1.70;;
8592;SDS011;4334;49.982;8.398;2023-03-16T17:22:59;4.23;;;1.80;;
8592;SDS011;4334;49.982;8.398;2023-03-16T17:25:44;4.10;;;1.73;;
8592;SDS011;4334;49.982;8.398;2023-03-16T17:28:11;2.13;;;1.80;;
8592;SDS011;4334;49.982;8.398;2023-03-16T17:30:39;2.67;;;1.70;;
8592;SDS011;4334;49.982;8.398;2023-03-16T17:33:13;4.90;;;2.20;;
8592;SDS011;4334;49.982;8.398;2023-03-16T17:35:46;2.60;;;2.10;;
8592;SDS011;4334;49.982;8.398;2023-03-16T17:38:19;4.83;;;2.50;;
8592;SDS011;4334;49.982;8.398;2023-03-16T17:40:49;4.17;;;2.87;;
8592;SDS011;4334;49.982;8.398;2023-03-16T17:43:21;5.17;;;2.60;;
8592;SDS011;4334;49.982;8.398;2023-03-16T17:45:51;9.03;;;2.87;;
8592;SDS011;4334;49.982;8.398;2023-03-16T17:48:23;3.53;;;2.20;;
8592;SDS011;4334;49.982;8.398;2023-03-16T17:50:53;3.50;;;2.30;;
8592;SDS011;4334;49.982;8.398;2023-03-16T17:53:21;4.53;;;2.40;;
8592;SDS011;4334;49.982;8.398;2023-03-16T17:55:50;4.07;;;2.57;;
8592;SDS011;4334;49.982;8.398;2023-03-16T17:58:21;4.33;;;2.60;;
8592;SDS011;4334;49.982;8.398;2023-03-16T18:00:57;4.33;;;2.37;;